Clevelandia, Brazil
Current Conditions -  °F | °C
As of 11:00 PM on Thursday 27 Nov 2014 (Local Time) from SBCH Reporting Station
Few Clouds Few Clouds  
Wind Chill: 75°   Ceiling: Unl
Heat Index: 75°   Visibility: 6mi
Dew Point: 61°   Wind: 15mph
Humidity: 61%   Direction: 170°S
Pressure: 29.94"   Gusts: NA
Location:  26.4°S, 52.47°W
Report Text: SBCH 280100Z 17013KT 9999 FEW020 24/16 Q1014
Loading
Personal Weather Stations






























Interactive Weather Map New forecast layout! Learn more

10-Day Weather Forecast

Advertisements
Track Severe Weather on mobile